Decoded Metar for KBDR (STRATFORD in CT, USA) (IATA:BDR) | Meteo·Mobile Aviation Weather
aviador You're here:

KBDR Decoded Metar

STRATFORD in CT, USA
Report Time2019-05-20 08:52:00
UTC Time2019-05-20 09:08:45
Flight Rules vfr VFR
Wind190° at 11 kt
W.Decomp.*RWY 24: 8.8 kt HW 6.6 kt LCW
RWY 29: 0.6 kt HW 11 kt LCW
Visibility9999 m
Phenomena:N/A
Clouds:Few 110 Hf
Expected CloudBase > 400 ft AGL from Temp-Dew spread
CeilingNone
Temp17°C (ISA +2)
Dew Point16°C (94% RH)
AAT15.0°C
QNH1010 hPa
Density Alt607 ft
Elevation23 ft
Report Wrong Elevation
Raw Report
KBDR 200852Z AUTO 19011KT 8SM FEW110 17/16 A2983 RMK AO2 RAB35E50
SLP100 P0001 60008 T01720161 58025=

Extra information for KBDR:More info

Metar Taf Metar & Taf Last 4 Metars F.Rules Stats Wind Profile Meteogram Temp Stats Airport Information Weather charts Add Link Nearby VenuesMetar ALERT Operation Metar Decoded Social comments

AIRNAV info for KBDR